Time;durP1;ratioP1;P1;durP2;ratioP2;P2;SDS_P1;SDS_P2;PMS_P1;PMS_P2;Temp;Humidity;BMP_temperature;BMP_pressure;BME280_temperature;BME280_humidity;BME280_pressure;Samples;Min_cycle;Max_cycle;Signal;HPM_P1;HPM_P2
2021/01/05 00:00:49;;;;;;;49.50;19.83;;;-2.30;99.90;;;;;;2080230;28;20188;-63
2021/01/05 00:01:50;;;;;;;53.60;20.30;;;-2.30;99.90;;;;;;2080579;28;20590;-63
2021/01/05 00:02:52;;;;;;;44.93;19.60;;;-2.30;99.90;;;;;;2080607;28;20231;-61
2021/01/05 00:03:52;;;;;;;49.95;20.17;;;-2.30;99.90;;;;;;2081461;28;20870;-63
2021/01/05 00:04:53;;;;;;;45.67;19.37;;;-2.30;99.90;;;;;;2082151;28;20186;-62
2021/01/05 00:05:54;;;;;;;43.43;18.60;;;-2.40;99.90;;;;;;2082144;28;20653;-63
2021/01/05 00:06:54;;;;;;;46.87;18.70;;;-2.40;99.90;;;;;;2082031;28;20183;-61
2021/01/05 00:07:55;;;;;;;59.03;22.00;;;-2.30;99.90;;;;;;2082176;28;20188;-62
2021/01/05 00:08:56;;;;;;;52.30;20.90;;;-2.30;99.90;;;;;;2081983;28;20240;-62
2021/01/05 00:09:56;;;;;;;57.27;20.33;;;-2.30;99.90;;;;;;2082227;28;20248;-61
2021/01/05 00:10:57;;;;;;;58.50;24.10;;;-2.30;99.90;;;;;;2081829;28;20186;-62
2021/01/05 00:12:07;;;;;;;52.53;20.87;;;-2.20;99.90;;;;;;2081976;28;20187;-62
2021/01/05 00:13:08;;;;;;;52.88;20.70;;;-2.30;99.90;;;;;;2081986;28;20185;-62
2021/01/05 00:14:08;;;;;;;48.90;19.73;;;-2.30;99.90;;;;;;2082051;28;20201;-61
2021/01/05 00:15:12;;;;;;;48.87;19.83;;;-2.30;99.90;;;;;;2081905;28;20179;-62
2021/01/05 00:16:12;;;;;;;52.78;19.75;;;-2.30;99.90;;;;;;2082059;28;20186;-62
2021/01/05 00:17:18;;;;;;;48.03;19.60;;;-2.40;99.90;;;;;;2081737;28;20188;-62
2021/01/05 00:18:19;;;;;;;50.88;20.40;;;-2.40;99.90;;;;;;2082251;28;20168;-62
2021/01/05 00:19:22;;;;;;;56.73;21.63;;;-2.30;99.90;;;;;;2081728;28;20262;-62
2021/01/05 00:20:32;;;;;;;50.10;19.70;;;-2.30;99.90;;;;;;2082015;28;20204;-62
2021/01/05 00:21:33;;;;;;;50.33;19.77;;;-2.30;99.90;;;;;;2081843;28;20176;-62
2021/01/05 00:22:34;;;;;;;53.47;20.77;;;-2.40;99.90;;;;;;2081983;28;20258;-62
2021/01/05 00:23:34;;;;;;;42.13;19.70;;;-2.30;99.90;;;;;;2082014;28;20674;-62
2021/01/05 00:24:35;;;;;;;46.40;19.93;;;-2.40;99.90;;;;;;2081963;28;20192;-62
2021/01/05 00:25:36;;;;;;;52.97;20.53;;;-2.40;99.90;;;;;;2081967;28;20184;-62
2021/01/05 00:26:38;;;;;;;48.60;19.37;;;-2.40;99.90;;;;;;2082094;28;20207;-61
2021/01/05 00:27:40;;;;;;;43.17;17.95;;;-2.40;99.90;;;;;;2081861;28;20184;-61
2021/01/05 00:28:41;;;;;;;44.40;18.80;;;-2.50;99.90;;;;;;2081852;28;20187;-62
2021/01/05 00:29:41;;;;;;;43.27;18.97;;;-2.40;99.90;;;;;;2081871;28;20203;-62
2021/01/05 00:30:42;;;;;;;41.17;18.40;;;-2.40;99.90;;;;;;2081882;28;20213;-63
2021/01/05 00:31:43;;;;;;;44.93;18.83;;;-2.40;99.90;;;;;;2081644;28;20191;-62
2021/01/05 00:32:46;;;;;;;40.58;17.92;;;-2.40;99.90;;;;;;2081999;28;20190;-62
2021/01/05 00:33:47;;;;;;;43.17;18.10;;;-2.40;99.90;;;;;;2086513;28;20183;-62
2021/01/05 00:34:48;;;;;;;44.17;18.23;;;-2.30;99.90;;;;;;2090765;28;20188;-61
2021/01/05 00:35:49;;;;;;;43.30;17.65;;;-2.30;99.90;;;;;;2089845;28;20205;-62
2021/01/05 00:36:49;;;;;;;42.47;17.23;;;-2.40;99.90;;;;;;2090344;28;20247;-62
2021/01/05 00:37:51;;;;;;;37.67;16.90;;;-2.40;99.90;;;;;;2090384;28;20200;-62
2021/01/05 00:38:52;;;;;;;47.35;19.02;;;-2.40;99.90;;;;;;2082954;28;20266;-62
2021/01/05 00:39:53;;;;;;;38.25;17.13;;;-2.40;99.90;;;;;;2081742;28;20206;-61
2021/01/05 00:40:54;;;;;;;49.47;19.13;;;-2.50;99.90;;;;;;2081819;28;20267;-62
2021/01/05 00:41:54;;;;;;;44.57;18.60;;;-2.50;99.90;;;;;;2081898;28;20709;-62
2021/01/05 00:42:55;;;;;;;43.80;18.23;;;-2.50;99.90;;;;;;2081874;28;20271;-61
2021/01/05 00:43:56;;;;;;;47.87;20.10;;;-2.40;99.90;;;;;;2081824;28;20186;-62
2021/01/05 00:44:56;;;;;;;45.57;20.13;;;-2.40;99.90;;;;;;2086912;28;20202;-62
2021/01/05 00:45:57;;;;;;;52.10;19.37;;;-2.40;99.90;;;;;;2089705;28;20211;-61
2021/01/05 00:46:58;;;;;;;46.53;19.20;;;-2.30;99.90;;;;;;2089540;28;20210;-61
2021/01/05 00:48:00;;;;;;;50.67;21.17;;;-2.30;99.90;;;;;;2088133;28;20237;-62
2021/01/05 00:49:01;;;;;;;60.20;20.30;;;-2.20;99.90;;;;;;2081859;28;20596;-62
2021/01/05 00:50:04;;;;;;;47.00;19.50;;;-2.30;99.90;;;;;;2081613;28;20188;-62
2021/01/05 00:51:06;;;;;;;43.05;18.98;;;-2.20;99.90;;;;;;2081513;28;20190;-62
2021/01/05 00:52:06;;;;;;;52.20;20.25;;;-2.30;99.90;;;;;;2081731;28;20187;-62
2021/01/05 00:53:07;;;;;;;47.80;19.73;;;-2.30;99.90;;;;;;2081672;28;20187;-61
2021/01/05 00:54:08;;;;;;;54.10;19.03;;;-2.20;99.90;;;;;;2089248;28;20183;-62
2021/01/05 00:55:10;;;;;;;51.87;21.57;;;-2.30;99.90;;;;;;2089330;28;20178;-62
2021/01/05 00:56:10;;;;;;;57.50;21.25;;;-2.40;99.90;;;;;;2081567;28;20843;-62
2021/01/05 00:57:11;;;;;;;53.10;21.40;;;-2.40;99.90;;;;;;2081855;28;20257;-62
2021/01/05 00:58:12;;;;;;;53.00;21.10;;;-2.40;99.90;;;;;;2081835;28;20183;-62
2021/01/05 00:59:13;;;;;;;56.30;21.17;;;-2.30;99.90;;;;;;2081651;28;20250;-63
2021/01/05 01:00:25;;;;;;;45.77;19.80;;;-2.30;99.90;;;;;;2081579;28;20185;-62
2021/01/05 01:01:25;;;;;;;48.90;19.58;;;-2.40;99.90;;;;;;2080888;28;20610;-62
2021/01/05 01:02:26;;;;;;;50.27;20.00;;;-2.40;99.90;;;;;;2081063;28;20182;-62
2021/01/05 01:03:27;;;;;;;47.93;19.60;;;-2.40;99.90;;;;;;2081762;28;20666;-63
2021/01/05 01:04:28;;;;;;;45.93;18.40;;;-2.30;99.90;;;;;;2081781;28;20175;-62
2021/01/05 01:05:29;;;;;;;42.97;19.35;;;-2.30;99.90;;;;;;2081693;28;20183;-61
2021/01/05 01:06:29;;;;;;;50.40;20.00;;;-2.40;99.90;;;;;;2089074;28;20196;-62
2021/01/05 01:07:30;;;;;;;58.27;21.60;;;-2.40;99.90;;;;;;2089360;28;20175;-62
2021/01/05 01:08:31;;;;;;;72.00;23.88;;;-2.40;99.90;;;;;;2081610;28;20180;-61
2021/01/05 01:09:32;;;;;;;65.50;22.47;;;-2.40;99.90;;;;;;2081687;28;20211;-63
2021/01/05 01:10:33;;;;;;;50.08;21.33;;;-2.30;99.90;;;;;;2081710;28;20216;-63
2021/01/05 01:11:37;;;;;;;56.53;21.43;;;-2.40;99.90;;;;;;2081218;28;20195;-63
2021/01/05 01:12:38;;;;;;;50.78;21.33;;;-2.40;99.90;;;;;;2081628;28;20558;-62
2021/01/05 01:13:39;;;;;;;61.00;21.03;;;-2.40;99.90;;;;;;2081629;28;20186;-62
2021/01/05 01:14:42;;;;;;;46.67;19.83;;;-2.40;99.90;;;;;;2081558;28;20562;-62
2021/01/05 01:15:43;;;;;;;46.05;18.77;;;-2.40;99.90;;;;;;2076364;28;20808;-61
2021/01/05 01:16:43;;;;;;;51.63;19.50;;;-2.40;99.90;;;;;;2073337;28;20182;-62
2021/01/05 01:17:44;;;;;;;53.60;19.93;;;-2.40;99.90;;;;;;2073456;28;20190;-62
2021/01/05 01:18:45;;;;;;;47.67;19.40;;;-2.40;99.90;;;;;;2073483;28;20187;-62
2021/01/05 01:19:45;;;;;;;49.87;19.30;;;-2.40;99.90;;;;;;2073159;28;20215;-62
2021/01/05 01:20:46;;;;;;;44.07;18.13;;;-2.50;99.90;;;;;;2073420;28;20189;-62
2021/01/05 01:21:49;;;;;;;50.40;20.63;;;-2.40;99.90;;;;;;2073032;28;20176;-62
2021/01/05 01:22:50;;;;;;;46.95;19.73;;;-2.50;99.90;;;;;;2073542;28;20181;-62
2021/01/05 01:23:50;;;;;;;45.57;19.87;;;-2.50;99.90;;;;;;2073268;28;20867;-62
2021/01/05 01:24:52;;;;;;;45.33;17.57;;;-2.50;99.90;;;;;;2073445;28;20215;-62
2021/01/05 01:25:53;;;;;;;43.92;17.98;;;-2.40;99.90;;;;;;2073362;28;20218;-62
2021/01/05 01:26:54;;;;;;;49.97;18.60;;;-2.40;99.90;;;;;;2073335;28;20199;-62
2021/01/05 01:27:54;;;;;;;41.67;17.05;;;-2.40;99.90;;;;;;2073145;28;20188;-62
2021/01/05 01:28:55;;;;;;;37.33;17.40;;;-2.60;99.90;;;;;;2072547;28;20186;-62
2021/01/05 01:29:56;;;;;;;40.27;17.17;;;-2.60;99.90;;;;;;2072555;28;20206;-62
2021/01/05 01:30:56;;;;;;;34.80;16.37;;;-2.60;99.90;;;;;;2073194;28;20191;-62
2021/01/05 01:31:57;;;;;;;46.50;18.77;;;-2.50;99.90;;;;;;2073337;28;20184;-62
2021/01/05 01:32:58;;;;;;;48.77;18.57;;;-2.50;99.90;;;;;;2073286;28;20182;-63
2021/01/05 01:33:59;;;;;;;47.83;17.77;;;-2.50;99.90;;;;;;2073280;28;20534;-63
2021/01/05 01:35:00;;;;;;;45.00;18.73;;;-2.40;99.90;;;;;;2073421;28;20715;-62
2021/01/05 01:36:00;;;;;;;40.70;17.90;;;-2.40;99.90;;;;;;2073399;28;20287;-62
2021/01/05 01:37:09;;;;;;;44.27;17.70;;;-2.40;99.90;;;;;;2073406;28;20255;-62
2021/01/05 01:38:10;;;;;;;45.85;16.45;;;-2.40;99.90;;;;;;2073240;28;20568;-63
2021/01/05 01:39:11;;;;;;;43.40;17.00;;;-2.40;99.90;;;;;;2073320;28;20277;-63
2021/01/05 01:40:13;;;;;;;43.43;17.23;;;-2.40;99.90;;;;;;2073208;28;20190;-63
2021/01/05 01:41:14;;;;;;;41.97;17.33;;;-2.50;99.90;;;;;;2072363;28;20215;-62
2021/01/05 01:42:18;;;;;;;47.27;16.53;;;-2.50;99.90;;;;;;2072562;28;20187;-63
2021/01/05 01:43:19;;;;;;;41.08;16.75;;;-2.50;99.90;;;;;;2072454;28;20183;-63
2021/01/05 01:44:32;;;;;;;43.67;18.00;;;-2.40;99.90;;;;;;2072604;28;20184;-63
2021/01/05 01:45:33;;;;;;;37.70;15.63;;;-2.40;99.90;;;;;;2073223;28;20627;-63
2021/01/05 01:46:35;;;;;;;36.53;15.73;;;-2.40;99.90;;;;;;2073051;28;20189;-62
2021/01/05 01:47:39;;;;;;;41.83;17.67;;;-2.40;99.90;;;;;;2073292;28;20186;-63
2021/01/05 01:48:41;;;;;;;37.42;16.08;;;-2.40;99.90;;;;;;2080650;28;20335;-62
2021/01/05 01:49:46;;;;;;;36.55;15.45;;;-2.40;99.90;;;;;;2080562;28;20211;-63
2021/01/05 01:50:46;;;;;;;35.92;16.25;;;-2.40;99.90;;;;;;2064911;28;20177;-62
2021/01/05 01:51:49;;;;;;;37.30;16.07;;;-2.40;99.90;;;;;;2072391;28;20180;-63
2021/01/05 01:53:01;;;;;;;38.05;16.27;;;-2.40;99.90;;;;;;2073030;28;20650;-63
2021/01/05 01:54:37;;;;;;;30.88;14.65;;;-2.40;99.90;;;;;;2073035;28;20596;-63
2021/01/05 01:56:02;;;;;;;39.13;15.00;;;-2.40;99.90;;;;;;2064370;28;20280;-62
2021/01/05 01:57:33;;;;;;;35.35;14.57;;;-2.40;99.90;;;;;;2073067;28;20241;-63
2021/01/05 01:59:01;;;;;;;35.10;14.50;;;-2.40;99.90;;;;;;2073201;28;20230;-62
2021/01/05 02:00:12;;;;;;;35.90;14.43;;;-2.50;99.90;;;;;;2072318;28;20570;-62
2021/01/05 02:01:43;;;;;;;33.13;14.45;;;-2.40;99.90;;;;;;2065367;28;20671;-63
2021/01/05 02:03:36;;;;;;;28.58;14.13;;;-2.40;99.90;;;;;;2072761;28;20662;-63
2021/01/05 02:04:52;;;;;;;28.35;11.73;;;-2.60;99.90;;;;;;2072375;28;20663;-62
2021/01/05 02:06:30;;;;;;;34.92;12.98;;;-2.60;99.90;;;;;;2072499;28;20166;-62
2021/01/05 02:08:12;;;;;;;26.23;11.65;;;-2.60;99.90;;;;;;2063914;28;20185;-62
2021/01/05 02:09:27;;;;;;;29.02;12.40;;;-2.80;99.90;;;;;;2072880;28;20197;-62
2021/01/05 02:11:04;;;;;;;32.60;14.02;;;-2.80;99.90;;;;;;2072907;28;20188;-62
2021/01/05 02:12:29;;;;;;;33.50;14.18;;;-2.90;99.90;;;;;;2072928;28;20626;-62
2021/01/05 02:13:44;;;;;;;33.78;13.77;;;-2.90;99.90;;;;;;2072205;28;20170;-61
2021/01/05 02:15:30;;;;;;;27.95;12.77;;;-2.90;99.90;;;;;;2074215;28;20169;-62
2021/01/05 02:17:09;;;;;;;28.88;13.43;;;-2.90;99.90;;;;;;2049563;28;20256;-63
2021/01/05 02:18:20;;;;;;;30.80;13.20;;;-2.80;99.90;;;;;;2072657;28;20179;-62
2021/01/05 02:19:30;;;;;;;31.85;13.98;;;-2.90;99.90;;;;;;2072697;28;20293;-62
2021/01/05 02:20:42;;;;;;;28.63;12.93;;;-2.80;99.90;;;;;;2072900;28;20582;-62
2021/01/05 02:21:57;;;;;;;31.77;14.18;;;-2.80;99.90;;;;;;2080127;28;20193;-62
2021/01/05 02:23:10;;;;;;;35.28;14.75;;;-2.80;99.90;;;;;;2072301;28;20174;-63
2021/01/05 02:24:30;;;;;;;31.30;14.45;;;-2.80;99.90;;;;;;2074032;28;20170;-62
2021/01/05 02:25:46;;;;;;;32.53;13.48;;;-2.70;99.90;;;;;;2078014;28;20162;-62
2021/01/05 02:26:59;;;;;;;31.15;13.10;;;-2.60;99.90;;;;;;2072605;28;20235;-62
2021/01/05 02:28:04;;;;;;;31.63;14.43;;;-2.50;99.90;;;;;;2072705;28;20171;-62
2021/01/05 02:29:16;;;;;;;29.70;12.82;;;-2.60;99.90;;;;;;2080255;28;20171;-63
2021/01/05 02:30:22;;;;;;;30.15;13.85;;;-2.60;99.90;;;;;;2078907;28;20175;-62
2021/01/05 02:31:40;;;;;;;31.77;13.77;;;-2.70;99.90;;;;;;2072641;28;20733;-62
2021/01/05 02:33:16;;;;;;;26.40;12.68;;;-2.70;99.90;;;;;;2078009;28;20269;-63
2021/01/05 02:34:59;;;;;;;30.27;13.30;;;-2.70;99.90;;;;;;2072857;28;20183;-62
2021/01/05 02:36:21;;;;;;;29.83;12.88;;;-2.70;99.90;;;;;;2069217;28;20205;-62
2021/01/05 02:37:50;;;;;;;29.30;12.38;;;-2.70;99.90;;;;;;2073437;28;20611;-62
2021/01/05 02:39:38;;;;;;;27.48;12.02;;;-2.70;99.90;;;;;;2072502;28;20808;-62
2021/01/05 02:40:54;;;;;;;27.60;12.45;;;-2.70;99.90;;;;;;2073336;28;20237;-62
2021/01/05 02:42:49;;;;;;;29.75;13.15;;;-2.80;99.90;;;;;;2073443;28;20180;-62
2021/01/05 02:44:22;;;;;;;31.15;12.25;;;-2.80;99.90;;;;;;2073177;28;20327;-61
2021/01/05 02:45:29;;;;;;;33.40;14.02;;;-2.80;99.90;;;;;;2072303;28;20209;-62
2021/01/05 02:46:53;;;;;;;26.95;12.00;;;-2.80;99.90;;;;;;2080276;28;20176;-62
2021/01/05 02:48:27;;;;;;;32.30;14.02;;;-2.90;99.90;;;;;;2077493;28;20175;-61
2021/01/05 02:49:46;;;;;;;28.38;12.75;;;-2.90;99.90;;;;;;2072648;28;20261;-62
2021/01/05 02:51:37;;;;;;;30.27;13.80;;;-2.90;99.90;;;;;;2072621;28;20188;-62
2021/01/05 02:53:19;;;;;;;31.95;13.38;;;-2.90;99.90;;;;;;2072675;28;20602;-62
2021/01/05 02:55:07;;;;;;;31.35;12.88;;;-2.80;99.90;;;;;;2072656;28;20197;-61
2021/01/05 02:56:48;;;;;;;29.25;12.57;;;-2.80;99.90;;;;;;2055333;28;20290;-62
2021/01/05 02:58:33;;;;;;;23.33;11.85;;;-2.70;99.90;;;;;;2072717;28;20792;-61
2021/01/05 03:00:11;;;;;;;28.70;13.95;;;-2.80;99.90;;;;;;2072405;28;20692;-63
2021/01/05 03:01:40;;;;;;;27.88;12.52;;;-2.80;99.90;;;;;;2071605;28;20189;-61
2021/01/05 03:03:07;;;;;;;25.25;12.15;;;-2.90;99.90;;;;;;2072358;28;20221;-62
2021/01/05 03:04:08;;;;;;;30.17;12.82;;;-2.90;99.90;;;;;;2072685;28;20164;-62
2021/01/05 03:05:09;;;;;;;22.00;12.63;;;-2.90;99.90;;;;;;2072485;28;20186;-62
2021/01/05 03:06:49;;;;;;;25.48;12.60;;;-2.90;99.90;;;;;;2072594;28;20187;-61
2021/01/05 03:07:51;;;;;;;28.52;13.10;;;-2.80;99.90;;;;;;2072516;28;20661;-62
2021/01/05 03:09:13;;;;;;;26.10;13.80;;;-2.80;99.90;;;;;;2072623;28;20689;-62
2021/01/05 03:10:50;;;;;;;27.23;12.65;;;-2.70;99.90;;;;;;2073156;28;20190;-62
2021/01/05 03:12:29;;;;;;;29.70;12.70;;;-2.70;99.90;;;;;;2072437;28;20180;-62
2021/01/05 03:13:40;;;;;;;33.92;12.57;;;-2.70;99.90;;;;;;2072030;28;20186;-62
2021/01/05 03:15:26;;;;;;;27.23;12.77;;;-2.80;99.90;;;;;;2072242;28;20203;-62
2021/01/05 03:16:32;;;;;;;31.25;13.63;;;-2.80;99.90;;;;;;2072534;28;20246;-62
2021/01/05 03:17:37;;;;;;;29.33;14.40;;;-2.80;99.90;;;;;;2080118;28;20158;-62
2021/01/05 03:19:00;;;;;;;29.38;14.45;;;-2.70;99.90;;;;;;2071867;28;20178;-61
2021/01/05 03:20:13;;;;;;;30.48;13.10;;;-2.70;99.90;;;;;;2071943;28;20250;-62
2021/01/05 03:21:26;;;;;;;28.58;13.27;;;-2.60;99.90;;;;;;2071635;28;20179;-62
2021/01/05 03:22:31;;;;;;;27.17;12.65;;;-2.70;99.90;;;;;;2065438;28;20166;-62
2021/01/05 03:23:33;;;;;;;34.13;14.07;;;-2.60;99.90;;;;;;2064366;28;20269;-62
2021/01/05 03:24:35;;;;;;;27.88;13.55;;;-2.60;99.90;;;;;;2071908;28;20190;-62
2021/01/05 03:25:41;;;;;;;26.90;13.65;;;-2.60;99.90;;;;;;2071932;28;20190;-61
2021/01/05 03:26:46;;;;;;;32.58;14.02;;;-2.60;99.90;;;;;;2064492;28;20166;-62
2021/01/05 03:27:48;;;;;;;31.67;14.85;;;-2.60;99.90;;;;;;2072067;28;20265;-61
2021/01/05 03:28:49;;;;;;;31.17;15.82;;;-2.50;99.90;;;;;;2079931;28;20177;-61
2021/01/05 03:30:08;;;;;;;31.77;13.87;;;-2.50;99.90;;;;;;2071913;28;20201;-62
2021/01/05 03:31:23;;;;;;;27.13;12.80;;;-2.50;99.90;;;;;;2071822;28;20938;-62
2021/01/05 03:32:24;;;;;;;23.92;12.80;;;-2.50;99.90;;;;;;2072485;28;20655;-62
2021/01/05 03:33:25;;;;;;;25.57;12.10;;;-2.50;99.90;;;;;;2072622;28;20178;-62
2021/01/05 03:34:26;;;;;;;30.17;14.70;;;-2.60;99.90;;;;;;2071808;28;20264;-62
2021/01/05 03:35:27;;;;;;;24.02;13.30;;;-2.60;99.90;;;;;;2071843;28;20238;-61
2021/01/05 03:36:28;;;;;;;31.05;14.50;;;-2.60;99.90;;;;;;2072414;28;20261;-62
2021/01/05 03:37:29;;;;;;;28.37;13.80;;;-2.60;99.90;;;;;;2072342;28;20176;-61
2021/01/05 03:38:29;;;;;;;26.10;13.70;;;-2.60;99.90;;;;;;2071928;28;20180;-61
2021/01/05 03:39:30;;;;;;;26.47;13.37;;;-2.60;99.90;;;;;;2072413;28;20630;-62
2021/01/05 03:40:31;;;;;;;28.23;14.07;;;-2.60;99.90;;;;;;2074369;28;20263;-61
2021/01/05 03:41:33;;;;;;;32.23;15.43;;;-2.60;99.90;;;;;;2073977;28;20179;-61
2021/01/05 03:42:33;;;;;;;32.85;15.48;;;-2.50;99.90;;;;;;2074364;28;20426;-61
2021/01/05 03:43:34;;;;;;;28.13;13.17;;;-2.50;99.90;;;;;;2074779;28;20191;-62
2021/01/05 03:44:35;;;;;;;28.27;14.47;;;-2.50;99.90;;;;;;2074837;28;20175;-62
2021/01/05 03:45:36;;;;;;;34.17;14.50;;;-2.40;99.90;;;;;;2072669;28;20185;-62
2021/01/05 03:46:37;;;;;;;30.23;14.57;;;-2.40;99.90;;;;;;2072508;28;20195;-62
2021/01/05 03:47:37;;;;;;;27.63;13.30;;;-2.40;99.90;;;;;;2072168;28;20706;-61
2021/01/05 03:48:39;;;;;;;30.67;15.20;;;-2.40;99.90;;;;;;2072455;28;20192;-61
2021/01/05 03:49:39;;;;;;;34.78;14.73;;;-2.50;99.90;;;;;;2072297;28;20206;-61
2021/01/05 03:50:40;;;;;;;32.27;14.13;;;-2.50;99.90;;;;;;2072434;28;20191;-62
2021/01/05 03:51:41;;;;;;;34.77;13.83;;;-2.50;99.90;;;;;;2076555;28;20189;-61
2021/01/05 03:52:41;;;;;;;28.80;13.80;;;-2.40;99.90;;;;;;2082285;28;20296;-62
2021/01/05 03:53:42;;;;;;;31.57;14.50;;;-2.40;99.90;;;;;;2090929;28;20625;-62
2021/01/05 03:54:43;;;;;;;28.67;14.23;;;-2.50;99.90;;;;;;2085352;28;20810;-61
2021/01/05 03:55:44;;;;;;;29.67;15.10;;;-2.50;99.90;;;;;;2072352;28;20341;-61
2021/01/05 03:56:45;;;;;;;28.80;14.25;;;-2.50;99.90;;;;;;2072381;28;20241;-61
2021/01/05 03:57:46;;;;;;;33.00;14.13;;;-2.50;99.90;;;;;;2072411;28;20220;-62
2021/01/05 03:58:47;;;;;;;27.23;13.13;;;-2.40;99.90;;;;;;2072408;28;20222;-62
2021/01/05 03:59:47;;;;;;;34.67;14.87;;;-2.40;99.90;;;;;;2072383;28;20516;-61
2021/01/05 04:00:49;;;;;;;32.00;15.53;;;-2.40;99.90;;;;;;2072291;28;20190;-61
2021/01/05 04:01:52;;;;;;;25.98;13.73;;;-2.40;99.90;;;;;;2072435;28;20190;-62
2021/01/05 04:02:58;;;;;;;26.70;13.50;;;-2.40;99.90;;;;;;2071751;28;20234;-62
2021/01/05 04:03:58;;;;;;;27.90;13.73;;;-2.40;99.90;;;;;;2071761;28;20171;-61
2021/01/05 04:04:59;;;;;;;26.43;13.17;;;-2.50;99.90;;;;;;2071500;28;20293;-61
2021/01/05 04:06:00;;;;;;;29.57;14.33;;;-2.50;99.90;;;;;;2071998;28;20269;-62
2021/01/05 04:07:01;;;;;;;28.37;13.83;;;-2.50;99.90;;;;;;2072343;28;20186;-61
2021/01/05 04:08:01;;;;;;;28.40;14.00;;;-2.40;99.90;;;;;;2072463;28;20194;-61
2021/01/05 04:09:02;;;;;;;26.63;13.30;;;-2.40;99.90;;;;;;2072174;28;20195;-61
2021/01/05 04:10:05;;;;;;;33.35;15.13;;;-2.40;99.90;;;;;;2072357;28;20193;-61
2021/01/05 04:11:06;;;;;;;29.63;13.68;;;-2.40;99.90;;;;;;2072131;28;20186;-61
2021/01/05 04:12:07;;;;;;;27.87;13.30;;;-2.40;99.90;;;;;;2072425;28;20185;-61
2021/01/05 04:13:07;;;;;;;25.03;11.83;;;-2.40;99.90;;;;;;2072338;28;20269;-61
2021/01/05 04:14:08;;;;;;;28.40;14.03;;;-2.40;99.90;;;;;;2072395;28;20184;-61
2021/01/05 04:15:19;;;;;;;28.20;13.33;;;-2.50;99.90;;;;;;2072149;28;20424;-61
2021/01/05 04:16:19;;;;;;;26.00;11.88;;;-2.60;99.90;;;;;;2072395;28;20168;-62
2021/01/05 04:17:20;;;;;;;23.93;12.00;;;-2.50;99.90;;;;;;2072295;28;20221;-62
2021/01/05 04:18:21;;;;;;;27.37;13.23;;;-2.50;99.90;;;;;;2072403;28;20636;-62
2021/01/05 04:19:22;;;;;;;27.17;13.83;;;-2.50;99.90;;;;;;2072142;28;20306;-61
2021/01/05 04:20:25;;;;;;;29.33;13.33;;;-2.40;99.90;;;;;;2072211;28;20544;-61
2021/01/05 04:21:26;;;;;;;23.95;12.52;;;-2.40;99.90;;;;;;2071912;28;20176;-62
2021/01/05 04:22:26;;;;;;;24.73;12.83;;;-2.40;99.90;;;;;;2072283;28;20170;-61
2021/01/05 04:23:27;;;;;;;23.83;12.90;;;-2.40;99.90;;;;;;2072295;28;20254;-62
2021/01/05 04:24:28;;;;;;;26.23;12.53;;;-2.40;99.90;;;;;;2072260;28;20593;-61
2021/01/05 04:25:28;;;;;;;24.77;12.00;;;-2.40;99.90;;;;;;2072270;28;20180;-61
2021/01/05 04:26:29;;;;;;;22.57;12.23;;;-2.40;99.90;;;;;;2072230;28;20228;-61
2021/01/05 04:27:30;;;;;;;23.17;12.43;;;-2.40;99.90;;;;;;2072396;28;20690;-61
2021/01/05 04:28:30;;;;;;;24.50;12.43;;;-2.40;99.90;;;;;;2072180;28;20246;-61
2021/01/05 04:29:31;;;;;;;23.97;11.37;;;-2.40;99.90;;;;;;2072294;28;20206;-61
2021/01/05 04:30:36;;;;;;;19.30;11.03;;;-2.40;99.90;;;;;;2072174;28;20179;-62
2021/01/05 04:31:42;;;;;;;21.70;11.00;;;-2.30;99.90;;;;;;2072078;28;20211;-61
2021/01/05 04:32:43;;;;;;;19.17;10.98;;;-2.40;99.90;;;;;;2072294;28;20673;-61
2021/01/05 04:33:44;;;;;;;20.13;10.57;;;-2.40;99.90;;;;;;2072385;28;20219;-61
2021/01/05 04:34:44;;;;;;;19.63;10.90;;;-2.40;99.90;;;;;;2072141;28;20214;-61
2021/01/05 04:35:45;;;;;;;17.00;10.27;;;-2.40;99.90;;;;;;2072315;28;20216;-62
2021/01/05 04:36:46;;;;;;;23.43;12.20;;;-2.40;99.90;;;;;;2072155;28;20279;-61
2021/01/05 04:37:47;;;;;;;23.40;11.93;;;-2.40;99.90;;;;;;2072311;28;20229;-61
2021/01/05 04:38:48;;;;;;;19.67;11.10;;;-2.40;99.90;;;;;;2072266;28;20178;-62
2021/01/05 04:39:48;;;;;;;23.87;12.27;;;-2.40;99.90;;;;;;2072185;28;20689;-61
2021/01/05 04:40:52;;;;;;;26.40;12.77;;;-2.30;99.90;;;;;;2072053;28;20183;-61
2021/01/05 04:42:11;;;;;;;21.70;12.52;;;-2.30;99.90;;;;;;2071747;28;20183;-61
2021/01/05 04:43:35;;;;;;;19.73;10.00;;;-2.30;99.90;;;;;;2065972;28;20196;-61
2021/01/05 04:44:59;;;;;;;20.05;10.57;;;-2.30;99.90;;;;;;2071749;28;20669;-62
2021/01/05 04:46:15;;;;;;;20.73;10.25;;;-2.40;99.90;;;;;;2071486;28;20352;-61
2021/01/05 04:48:09;;;;;;;20.77;10.50;;;-2.40;99.90;;;;;;2071549;28;20236;-61
2021/01/05 04:49:32;;;;;;;21.15;9.98;;;-2.50;99.90;;;;;;2071393;28;20203;-61
2021/01/05 04:50:42;;;;;;;23.10;10.07;;;-2.60;99.90;;;;;;2074982;28;20175;-62
2021/01/05 04:52:10;;;;;;;18.10;9.70;;;-2.60;99.90;;;;;;2072970;28;20187;-61
2021/01/05 04:53:24;;;;;;;20.90;10.35;;;-2.50;99.90;;;;;;2068556;28;20190;-60
2021/01/05 04:54:45;;;;;;;19.05;10.25;;;-2.60;99.90;;;;;;2075261;28;20199;-60
2021/01/05 04:56:05;;;;;;;22.60;11.45;;;-2.60;99.90;;;;;;2073075;28;20202;-61
2021/01/05 04:57:10;;;;;;;23.77;11.15;;;-2.60;99.90;;;;;;2075371;28;20187;-60
2021/01/05 04:58:34;;;;;;;23.02;12.05;;;-2.70;99.90;;;;;;2072990;28;20183;-61
2021/01/05 04:59:48;;;;;;;23.25;11.30;;;-2.70;99.90;;;;;;2073205;28;20275;-61
2021/01/05 05:00:50;;;;;;;19.15;10.75;;;-2.60;99.90;;;;;;2072862;28;20167;-61
2021/01/05 05:01:50;;;;;;;22.60;11.32;;;-2.60;99.90;;;;;;2064883;28;20208;-62
2021/01/05 05:03:00;;;;;;;26.07;12.70;;;-2.40;99.90;;;;;;2073013;28;20185;-62
2021/01/05 05:04:29;;;;;;;24.80;11.75;;;-2.40;99.90;;;;;;2072935;28;20564;-62
2021/01/05 05:05:49;;;;;;;24.20;12.50;;;-2.30;99.90;;;;;;2073220;28;20179;-61
2021/01/05 05:07:28;;;;;;;21.10;11.05;;;-2.40;99.90;;;;;;2073149;28;20167;-62
2021/01/05 05:09:09;;;;;;;22.08;12.07;;;-2.50;99.90;;;;;;2057643;28;20187;-62
2021/01/05 05:10:17;;;;;;;18.65;9.65;;;-2.50;99.90;;;;;;2062090;28;20182;-61
2021/01/05 05:11:20;;;;;;;16.45;8.77;;;-2.50;99.90;;;;;;2065535;28;20184;-62
2021/01/05 05:12:46;;;;;;;20.65;10.73;;;-2.60;99.90;;;;;;2073274;28;20176;-62
2021/01/05 05:14:06;;;;;;;20.25;10.38;;;-2.60;99.90;;;;;;2076175;28;20188;-60
2021/01/05 05:15:44;;;;;;;22.63;10.60;;;-2.60;99.90;;;;;;2083934;28;20185;-61
2021/01/05 05:17:09;;;;;;;26.30;11.05;;;-2.80;99.90;;;;;;2084762;28;20182;-61
2021/01/05 05:18:41;;;;;;;20.27;10.75;;;-2.70;99.90;;;;;;2080945;28;20176;-61
2021/01/05 05:20:17;;;;;;;16.65;9.38;;;-2.60;99.90;;;;;;2084676;28;20370;-61
2021/01/05 05:21:38;;;;;;;16.40;8.75;;;-2.60;99.90;;;;;;2080765;28;20186;-61
2021/01/05 05:23:13;;;;;;;19.77;10.35;;;-2.60;99.90;;;;;;2081161;28;20173;-62
2021/01/05 05:24:37;;;;;;;21.10;10.38;;;-2.60;99.90;;;;;;2081627;28;20185;-60
2021/01/05 05:25:48;;;;;;;18.65;9.45;;;-2.60;99.90;;;;;;2081134;28;20200;-61
2021/01/05 05:27:02;;;;;;;22.15;10.73;;;-2.60;99.90;;;;;;2082293;28;20245;-61
2021/01/05 05:28:21;;;;;;;19.50;10.48;;;-2.60;99.90;;;;;;2080801;28;20211;-61
2021/01/05 05:29:53;;;;;;;20.02;9.70;;;-2.70;99.90;;;;;;2080902;28;20210;-62
2021/01/05 05:30:54;;;;;;;21.63;10.60;;;-2.60;99.90;;;;;;2078769;28;20198;-62
2021/01/05 05:31:59;;;;;;;22.73;11.32;;;-2.70;99.90;;;;;;2072855;28;20175;-62
2021/01/05 05:33:05;;;;;;;22.05;11.27;;;-2.70;99.90;;;;;;2081379;28;20247;-61
2021/01/05 05:34:20;;;;;;;20.38;10.20;;;-2.60;99.90;;;;;;2089099;28;20244;-61
2021/01/05 05:36:19;;;;;;;17.30;9.88;;;-2.60;99.90;;;;;;2087010;28;20644;-61
2021/01/05 05:37:57;;;;;;;21.42;9.48;;;-2.50;99.90;;;;;;2072790;28;20609;-62
2021/01/05 05:39:41;;;;;;;19.67;9.73;;;-2.50;99.90;;;;;;2080859;28;20264;-61
2021/01/05 05:40:55;;;;;;;18.95;9.68;;;-2.40;99.90;;;;;;2080937;28;20228;-62
2021/01/05 05:42:10;;;;;;;21.23;9.73;;;-2.40;99.90;;;;;;2081496;28;20182;-61
2021/01/05 05:43:29;;;;;;;19.88;9.60;;;-2.40;99.90;;;;;;2080767;28;20276;-61
2021/01/05 05:44:54;;;;;;;20.25;9.70;;;-2.40;99.90;;;;;;2083426;28;20263;-61
2021/01/05 05:46:07;;;;;;;15.18;9.07;;;-2.40;99.90;;;;;;2089019;28;20202;-60
2021/01/05 05:47:29;;;;;;;19.67;9.65;;;-2.40;99.90;;;;;;2080779;28;20788;-62
2021/01/05 05:48:55;;;;;;;17.48;9.52;;;-2.50;99.90;;;;;;2075591;28;20170;-62
2021/01/05 05:50:14;;;;;;;21.48;11.15;;;-2.50;99.90;;;;;;2076028;28;20200;-61
2021/01/05 05:51:31;;;;;;;22.42;10.55;;;-2.50;99.90;;;;;;2080602;28;20700;-61
2021/01/05 05:52:57;;;;;;;20.08;10.77;;;-2.40;99.90;;;;;;2080800;28;20211;-62
2021/01/05 05:54:07;;;;;;;25.95;11.68;;;-2.40;99.90;;;;;;2080917;28;20207;-62
2021/01/05 05:55:58;;;;;;;20.60;10.82;;;-2.30;99.90;;;;;;2088836;28;20185;-61
2021/01/05 05:57:06;;;;;;;23.00;10.60;;;-2.40;99.90;;;;;;2082546;28;20182;-61